sensor_id;sensor_type;location;lat;lon;timestamp;temperature;humidity
19437;DHT22;9854;50.968;4.168;2022-07-09T00:00:00;19.90;99.90
19437;DHT22;9854;50.968;4.168;2022-07-09T00:02:26;19.80;99.90
19437;DHT22;9854;50.968;4.168;2022-07-09T00:04:51;19.80;99.90
19437;DHT22;9854;50.968;4.168;2022-07-09T00:07:17;19.70;99.90
19437;DHT22;9854;50.968;4.168;2022-07-09T00:09:43;19.60;99.90
19437;DHT22;9854;50.968;4.168;2022-07-09T00:12:09;19.50;99.90
19437;DHT22;9854;50.968;4.168;2022-07-09T00:14:34;19.60;99.90
19437;DHT22;9854;50.968;4.168;2022-07-09T00:17:00;19.60;99.90
19437;DHT22;9854;50.968;4.168;2022-07-09T00:19:26;19.50;99.90
19437;DHT22;9854;50.968;4.168;2022-07-09T00:21:52;19.60;99.90
19437;DHT22;9854;50.968;4.168;2022-07-09T00:24:17;19.70;99.90
19437;DHT22;9854;50.968;4.168;2022-07-09T00:26:43;19.50;99.90
19437;DHT22;9854;50.968;4.168;2022-07-09T00:29:09;19.40;99.90
19437;DHT22;9854;50.968;4.168;2022-07-09T00:31:34;19.40;99.90
19437;DHT22;9854;50.968;4.168;2022-07-09T00:34:00;19.40;99.90
19437;DHT22;9854;50.968;4.168;2022-07-09T00:36:26;19.50;99.90
19437;DHT22;9854;50.968;4.168;2022-07-09T00:38:51;19.50;99.90
19437;DHT22;9854;50.968;4.168;2022-07-09T00:41:17;19.40;99.90
19437;DHT22;9854;50.968;4.168;2022-07-09T00:43:49;19.30;99.90
19437;DHT22;9854;50.968;4.168;2022-07-09T00:46:16;19.40;99.90
19437;DHT22;9854;50.968;4.168;2022-07-09T00:48:41;19.50;99.90
19437;DHT22;9854;50.968;4.168;2022-07-09T00:51:08;19.50;99.90
19437;DHT22;9854;50.968;4.168;2022-07-09T00:53:34;19.50;99.90
19437;DHT22;9854;50.968;4.168;2022-07-09T00:56:00;19.50;99.90
19437;DHT22;9854;50.968;4.168;2022-07-09T00:58:26;19.40;99.90
19437;DHT22;9854;50.968;4.168;2022-07-09T01:00:53;19.40;99.90
19437;DHT22;9854;50.968;4.168;2022-07-09T01:03:19;19.40;99.90
19437;DHT22;9854;50.968;4.168;2022-07-09T01:05:45;19.40;99.90
19437;DHT22;9854;50.968;4.168;2022-07-09T01:08:11;19.40;99.90
19437;DHT22;9854;50.968;4.168;2022-07-09T01:10:37;19.40;99.90
19437;DHT22;9854;50.968;4.168;2022-07-09T01:13:04;19.50;99.90
19437;DHT22;9854;50.968;4.168;2022-07-09T01:15:30;19.40;99.90
19437;DHT22;9854;50.968;4.168;2022-07-09T01:17:56;19.30;99.90
19437;DHT22;9854;50.968;4.168;2022-07-09T01:20:29;19.30;99.90
19437;DHT22;9854;50.968;4.168;2022-07-09T01:22:55;19.40;99.90
19437;DHT22;9854;50.968;4.168;2022-07-09T01:25:37;19.40;99.90
19437;DHT22;9854;50.968;4.168;2022-07-09T01:28:05;19.60;99.90
19437;DHT22;9854;50.968;4.168;2022-07-09T01:30:32;19.60;99.90
19437;DHT22;9854;50.968;4.168;2022-07-09T01:32:58;19.80;99.90
19437;DHT22;9854;50.968;4.168;2022-07-09T01:35:23;19.70;99.90
19437;DHT22;9854;50.968;4.168;2022-07-09T01:37:49;19.80;99.90
19437;DHT22;9854;50.968;4.168;2022-07-09T01:40:15;19.70;99.90
19437;DHT22;9854;50.968;4.168;2022-07-09T01:42:41;19.50;99.90
19437;DHT22;9854;50.968;4.168;2022-07-09T01:45:07;19.40;99.90
19437;DHT22;9854;50.968;4.168;2022-07-09T01:47:33;19.30;99.90
19437;DHT22;9854;50.968;4.168;2022-07-09T01:49:58;19.40;99.90
19437;DHT22;9854;50.968;4.168;2022-07-09T01:52:24;19.50;99.90
19437;DHT22;9854;50.968;4.168;2022-07-09T01:54:50;19.70;99.90
19437;DHT22;9854;50.968;4.168;2022-07-09T01:57:16;19.90;99.90
19437;DHT22;9854;50.968;4.168;2022-07-09T01:59:42;19.60;99.90
19437;DHT22;9854;50.968;4.168;2022-07-09T02:02:07;19.40;99.90
19437;DHT22;9854;50.968;4.168;2022-07-09T02:04:33;19.30;99.90
19437;DHT22;9854;50.968;4.168;2022-07-09T02:06:59;19.30;99.90
19437;DHT22;9854;50.968;4.168;2022-07-09T02:09:24;19.10;99.90
19437;DHT22;9854;50.968;4.168;2022-07-09T02:11:50;19.00;99.90
19437;DHT22;9854;50.968;4.168;2022-07-09T02:14:16;19.00;99.90
19437;DHT22;9854;50.968;4.168;2022-07-09T02:16:43;19.00;99.90
19437;DHT22;9854;50.968;4.168;2022-07-09T02:19:08;19.00;99.90
19437;DHT22;9854;50.968;4.168;2022-07-09T02:21:34;19.20;99.90
19437;DHT22;9854;50.968;4.168;2022-07-09T02:24:00;19.10;99.90
19437;DHT22;9854;50.968;4.168;2022-07-09T02:26:26;19.10;99.90
19437;DHT22;9854;50.968;4.168;2022-07-09T02:28:54;19.10;99.90
19437;DHT22;9854;50.968;4.168;2022-07-09T02:31:19;19.00;99.90
19437;DHT22;9854;50.968;4.168;2022-07-09T02:33:45;19.10;99.90
19437;DHT22;9854;50.968;4.168;2022-07-09T02:36:11;19.30;99.90
19437;DHT22;9854;50.968;4.168;2022-07-09T02:38:36;19.60;99.90
19437;DHT22;9854;50.968;4.168;2022-07-09T02:41:02;19.70;99.90
19437;DHT22;9854;50.968;4.168;2022-07-09T02:43:28;19.50;99.90
19437;DHT22;9854;50.968;4.168;2022-07-09T02:45:54;19.30;99.90
19437;DHT22;9854;50.968;4.168;2022-07-09T02:48:22;19.30;99.90
19437;DHT22;9854;50.968;4.168;2022-07-09T02:50:52;19.20;99.90
19437;DHT22;9854;50.968;4.168;2022-07-09T02:53:18;19.00;99.90
19437;DHT22;9854;50.968;4.168;2022-07-09T02:55:44;19.00;99.90
19437;DHT22;9854;50.968;4.168;2022-07-09T02:58:10;19.00;99.90
19437;DHT22;9854;50.968;4.168;2022-07-09T03:00:36;19.20;99.90
19437;DHT22;9854;50.968;4.168;2022-07-09T03:03:02;19.30;99.90
19437;DHT22;9854;50.968;4.168;2022-07-09T03:05:28;19.50;99.90
19437;DHT22;9854;50.968;4.168;2022-07-09T03:07:53;19.50;99.90
19437;DHT22;9854;50.968;4.168;2022-07-09T03:10:20;19.50;99.90
19437;DHT22;9854;50.968;4.168;2022-07-09T03:12:45;19.60;99.90
19437;DHT22;9854;50.968;4.168;2022-07-09T03:15:11;19.60;99.90
19437;DHT22;9854;50.968;4.168;2022-07-09T03:17:40;19.50;99.90
19437;DHT22;9854;50.968;4.168;2022-07-09T03:20:06;19.60;99.90
19437;DHT22;9854;50.968;4.168;2022-07-09T03:22:31;19.50;99.90
19437;DHT22;9854;50.968;4.168;2022-07-09T03:24:57;19.40;99.90
19437;DHT22;9854;50.968;4.168;2022-07-09T03:27:23;19.60;99.90
19437;DHT22;9854;50.968;4.168;2022-07-09T03:29:49;19.80;99.90
19437;DHT22;9854;50.968;4.168;2022-07-09T03:32:15;19.80;99.90
19437;DHT22;9854;50.968;4.168;2022-07-09T03:34:41;19.50;99.90
19437;DHT22;9854;50.968;4.168;2022-07-09T03:37:06;19.00;99.90
19437;DHT22;9854;50.968;4.168;2022-07-09T03:39:32;19.00;99.90
19437;DHT22;9854;50.968;4.168;2022-07-09T03:41:58;19.20;99.90
19437;DHT22;9854;50.968;4.168;2022-07-09T03:44:23;19.60;99.90
19437;DHT22;9854;50.968;4.168;2022-07-09T03:46:49;19.70;99.90
19437;DHT22;9854;50.968;4.168;2022-07-09T03:49:15;19.70;99.90
19437;DHT22;9854;50.968;4.168;2022-07-09T03:51:40;19.60;99.90
19437;DHT22;9854;50.968;4.168;2022-07-09T03:54:07;19.20;99.90
19437;DHT22;9854;50.968;4.168;2022-07-09T03:56:33;19.00;99.90
19437;DHT22;9854;50.968;4.168;2022-07-09T03:58:59;18.80;99.90
19437;DHT22;9854;50.968;4.168;2022-07-09T04:01:24;18.90;99.90
19437;DHT22;9854;50.968;4.168;2022-07-09T04:03:50;19.00;99.90
19437;DHT22;9854;50.968;4.168;2022-07-09T04:06:15;19.10;99.90
19437;DHT22;9854;50.968;4.168;2022-07-09T04:08:41;19.20;99.90
19437;DHT22;9854;50.968;4.168;2022-07-09T04:11:07;19.40;99.90
19437;DHT22;9854;50.968;4.168;2022-07-09T04:13:32;19.50;99.90
19437;DHT22;9854;50.968;4.168;2022-07-09T04:15:58;19.40;99.90
19437;DHT22;9854;50.968;4.168;2022-07-09T04:18:24;19.20;99.90
19437;DHT22;9854;50.968;4.168;2022-07-09T04:20:49;19.20;99.90
19437;DHT22;9854;50.968;4.168;2022-07-09T04:23:16;19.10;99.90
19437;DHT22;9854;50.968;4.168;2022-07-09T04:25:41;19.30;99.90
19437;DHT22;9854;50.968;4.168;2022-07-09T04:28:07;19.50;99.90
19437;DHT22;9854;50.968;4.168;2022-07-09T04:30:33;19.40;99.90
19437;DHT22;9854;50.968;4.168;2022-07-09T04:32:58;19.20;99.90
19437;DHT22;9854;50.968;4.168;2022-07-09T04:35:26;19.10;99.90
19437;DHT22;9854;50.968;4.168;2022-07-09T04:37:51;19.00;99.90
19437;DHT22;9854;50.968;4.168;2022-07-09T04:40:17;19.10;99.90
19437;DHT22;9854;50.968;4.168;2022-07-09T04:42:42;19.10;99.90
19437;DHT22;9854;50.968;4.168;2022-07-09T04:45:08;19.20;99.90
19437;DHT22;9854;50.968;4.168;2022-07-09T04:47:34;19.40;99.90
19437;DHT22;9854;50.968;4.168;2022-07-09T04:50:00;19.50;99.90
19437;DHT22;9854;50.968;4.168;2022-07-09T04:52:25;19.50;99.90
19437;DHT22;9854;50.968;4.168;2022-07-09T04:54:52;19.30;99.90
19437;DHT22;9854;50.968;4.168;2022-07-09T04:57:19;19.40;99.90
19437;DHT22;9854;50.968;4.168;2022-07-09T04:59:44;19.80;99.90
19437;DHT22;9854;50.968;4.168;2022-07-09T05:02:10;20.00;99.90
19437;DHT22;9854;50.968;4.168;2022-07-09T05:04:36;19.90;99.90
19437;DHT22;9854;50.968;4.168;2022-07-09T05:07:03;19.80;99.90
19437;DHT22;9854;50.968;4.168;2022-07-09T05:09:28;19.80;99.90
19437;DHT22;9854;50.968;4.168;2022-07-09T05:11:54;19.90;99.90
19437;DHT22;9854;50.968;4.168;2022-07-09T05:14:20;19.60;99.90
19437;DHT22;9854;50.968;4.168;2022-07-09T05:16:46;19.50;99.90
19437;DHT22;9854;50.968;4.168;2022-07-09T05:19:12;19.80;99.90
19437;DHT22;9854;50.968;4.168;2022-07-09T05:21:41;20.00;99.90
19437;DHT22;9854;50.968;4.168;2022-07-09T05:24:07;20.00;99.90
19437;DHT22;9854;50.968;4.168;2022-07-09T05:26:36;19.90;99.90
19437;DHT22;9854;50.968;4.168;2022-07-09T05:29:03;19.80;99.90
19437;DHT22;9854;50.968;4.168;2022-07-09T05:31:34;19.60;99.90
19437;DHT22;9854;50.968;4.168;2022-07-09T05:34:00;19.50;99.90
19437;DHT22;9854;50.968;4.168;2022-07-09T05:36:26;19.40;99.90
19437;DHT22;9854;50.968;4.168;2022-07-09T05:38:54;19.40;99.90
19437;DHT22;9854;50.968;4.168;2022-07-09T05:41:20;19.20;99.90
19437;DHT22;9854;50.968;4.168;2022-07-09T05:43:47;19.00;99.90
19437;DHT22;9854;50.968;4.168;2022-07-09T05:46:13;19.10;99.90
19437;DHT22;9854;50.968;4.168;2022-07-09T05:48:39;19.40;99.90
19437;DHT22;9854;50.968;4.168;2022-07-09T05:51:05;19.40;99.90
19437;DHT22;9854;50.968;4.168;2022-07-09T05:53:31;19.40;99.90
19437;DHT22;9854;50.968;4.168;2022-07-09T05:55:56;19.40;99.90
19437;DHT22;9854;50.968;4.168;2022-07-09T05:58:22;19.70;99.90
19437;DHT22;9854;50.968;4.168;2022-07-09T06:00:48;19.80;99.90
19437;DHT22;9854;50.968;4.168;2022-07-09T06:03:13;19.80;99.90
19437;DHT22;9854;50.968;4.168;2022-07-09T06:05:39;19.80;99.90
19437;DHT22;9854;50.968;4.168;2022-07-09T06:08:04;19.90;99.90
19437;DHT22;9854;50.968;4.168;2022-07-09T06:10:30;19.90;99.90
19437;DHT22;9854;50.968;4.168;2022-07-09T06:12:56;19.90;99.90
19437;DHT22;9854;50.968;4.168;2022-07-09T06:15:21;20.10;99.90
19437;DHT22;9854;50.968;4.168;2022-07-09T06:17:47;20.10;99.90
19437;DHT22;9854;50.968;4.168;2022-07-09T06:20:15;20.10;99.90
19437;DHT22;9854;50.968;4.168;2022-07-09T06:22:41;20.10;99.90
19437;DHT22;9854;50.968;4.168;2022-07-09T06:25:08;20.30;99.90
19437;DHT22;9854;50.968;4.168;2022-07-09T06:27:34;20.30;99.90
19437;DHT22;9854;50.968;4.168;2022-07-09T06:30:00;20.60;99.90
19437;DHT22;9854;50.968;4.168;2022-07-09T06:32:26;20.50;99.90
19437;DHT22;9854;50.968;4.168;2022-07-09T06:34:51;20.50;99.90
19437;DHT22;9854;50.968;4.168;2022-07-09T06:37:17;20.50;99.90
19437;DHT22;9854;50.968;4.168;2022-07-09T06:39:43;20.50;99.90
19437;DHT22;9854;50.968;4.168;2022-07-09T06:42:12;20.50;99.90
19437;DHT22;9854;50.968;4.168;2022-07-09T06:44:39;20.70;99.90
19437;DHT22;9854;50.968;4.168;2022-07-09T06:47:05;20.70;99.90
19437;DHT22;9854;50.968;4.168;2022-07-09T06:49:31;20.70;99.90
19437;DHT22;9854;50.968;4.168;2022-07-09T06:51:57;20.80;99.90
19437;DHT22;9854;50.968;4.168;2022-07-09T06:54:23;20.90;99.90
19437;DHT22;9854;50.968;4.168;2022-07-09T06:56:49;21.00;99.90
19437;DHT22;9854;50.968;4.168;2022-07-09T06:59:15;21.10;99.90
19437;DHT22;9854;50.968;4.168;2022-07-09T07:01:40;21.10;99.90
19437;DHT22;9854;50.968;4.168;2022-07-09T07:04:06;21.10;99.90
19437;DHT22;9854;50.968;4.168;2022-07-09T07:06:32;20.90;99.90
19437;DHT22;9854;50.968;4.168;2022-07-09T07:08:57;21.00;99.90
19437;DHT22;9854;50.968;4.168;2022-07-09T07:11:24;21.00;99.90
19437;DHT22;9854;50.968;4.168;2022-07-09T07:13:50;21.00;99.90
19437;DHT22;9854;50.968;4.168;2022-07-09T07:16:16;21.00;99.90
19437;DHT22;9854;50.968;4.168;2022-07-09T07:18:41;21.00;99.90
19437;DHT22;9854;50.968;4.168;2022-07-09T07:21:07;21.10;99.90
19437;DHT22;9854;50.968;4.168;2022-07-09T07:23:32;21.20;99.90
19437;DHT22;9854;50.968;4.168;2022-07-09T07:26:00;21.30;99.90
19437;DHT22;9854;50.968;4.168;2022-07-09T07:28:26;21.30;99.90
19437;DHT22;9854;50.968;4.168;2022-07-09T07:30:52;21.20;99.90
19437;DHT22;9854;50.968;4.168;2022-07-09T07:33:17;21.00;99.90
19437;DHT22;9854;50.968;4.168;2022-07-09T07:35:46;21.00;99.90
19437;DHT22;9854;50.968;4.168;2022-07-09T07:38:12;21.00;99.90
19437;DHT22;9854;50.968;4.168;2022-07-09T07:40:37;21.00;99.90
19437;DHT22;9854;50.968;4.168;2022-07-09T07:43:03;20.90;99.90
19437;DHT22;9854;50.968;4.168;2022-07-09T07:45:29;20.90;99.90
19437;DHT22;9854;50.968;4.168;2022-07-09T07:47:55;20.90;99.90
19437;DHT22;9854;50.968;4.168;2022-07-09T07:50:22;20.80;99.90
19437;DHT22;9854;50.968;4.168;2022-07-09T07:52:48;20.70;99.90
19437;DHT22;9854;50.968;4.168;2022-07-09T07:55:14;20.80;99.90
19437;DHT22;9854;50.968;4.168;2022-07-09T07:57:40;21.00;99.90
19437;DHT22;9854;50.968;4.168;2022-07-09T08:00:06;21.20;99.90
19437;DHT22;9854;50.968;4.168;2022-07-09T08:02:33;21.40;99.90
19437;DHT22;9854;50.968;4.168;2022-07-09T08:05:00;21.40;99.90
19437;DHT22;9854;50.968;4.168;2022-07-09T08:07:25;21.50;99.90
19437;DHT22;9854;50.968;4.168;2022-07-09T08:09:51;21.50;99.90
19437;DHT22;9854;50.968;4.168;2022-07-09T08:12:17;21.40;99.90
19437;DHT22;9854;50.968;4.168;2022-07-09T08:14:42;21.50;99.90
19437;DHT22;9854;50.968;4.168;2022-07-09T08:17:08;21.60;99.90
19437;DHT22;9854;50.968;4.168;2022-07-09T08:19:34;21.80;99.90
19437;DHT22;9854;50.968;4.168;2022-07-09T08:21:59;21.70;99.90
19437;DHT22;9854;50.968;4.168;2022-07-09T08:24:25;21.80;99.90
19437;DHT22;9854;50.968;4.168;2022-07-09T08:26:52;21.90;99.90
19437;DHT22;9854;50.968;4.168;2022-07-09T08:29:17;22.00;99.90
19437;DHT22;9854;50.968;4.168;2022-07-09T08:31:43;21.90;99.90
19437;DHT22;9854;50.968;4.168;2022-07-09T08:34:08;21.80;99.90
19437;DHT22;9854;50.968;4.168;2022-07-09T08:36:34;21.70;99.90
19437;DHT22;9854;50.968;4.168;2022-07-09T08:39:00;21.80;99.90
19437;DHT22;9854;50.968;4.168;2022-07-09T08:41:25;22.00;99.90
19437;DHT22;9854;50.968;4.168;2022-07-09T08:43:51;22.20;99.90
19437;DHT22;9854;50.968;4.168;2022-07-09T08:46:18;22.50;99.90
19437;DHT22;9854;50.968;4.168;2022-07-09T08:48:44;22.50;99.90
19437;DHT22;9854;50.968;4.168;2022-07-09T08:51:11;22.30;99.90
19437;DHT22;9854;50.968;4.168;2022-07-09T08:53:42;22.60;99.90
19437;DHT22;9854;50.968;4.168;2022-07-09T08:56:09;22.90;99.90
19437;DHT22;9854;50.968;4.168;2022-07-09T08:58:35;22.90;99.90
19437;DHT22;9854;50.968;4.168;2022-07-09T09:01:01;22.60;99.90
19437;DHT22;9854;50.968;4.168;2022-07-09T09:03:26;22.50;99.90
19437;DHT22;9854;50.968;4.168;2022-07-09T09:06:09;22.60;99.90
19437;DHT22;9854;50.968;4.168;2022-07-09T09:08:37;22.80;99.90
19437;DHT22;9854;50.968;4.168;2022-07-09T09:11:04;23.10;99.90
19437;DHT22;9854;50.968;4.168;2022-07-09T09:13:30;23.20;99.90
19437;DHT22;9854;50.968;4.168;2022-07-09T09:16:07;22.90;99.90
19437;DHT22;9854;50.968;4.168;2022-07-09T09:18:37;23.00;99.90
19437;DHT22;9854;50.968;4.168;2022-07-09T09:21:05;23.10;99.90
19437;DHT22;9854;50.968;4.168;2022-07-09T09:23:45;23.30;99.90
19437;DHT22;9854;50.968;4.168;2022-07-09T09:26:14;23.30;99.90
19437;DHT22;9854;50.968;4.168;2022-07-09T09:28:55;23.50;99.90
19437;DHT22;9854;50.968;4.168;2022-07-09T09:31:26;23.50;99.90
19437;DHT22;9854;50.968;4.168;2022-07-09T09:33:54;23.30;99.90
19437;DHT22;9854;50.968;4.168;2022-07-09T09:36:33;23.60;99.90
19437;DHT22;9854;50.968;4.168;2022-07-09T09:39:17;23.40;99.90
19437;DHT22;9854;50.968;4.168;2022-07-09T09:41:45;23.20;99.90
19437;DHT22;9854;50.968;4.168;2022-07-09T09:44:13;23.30;99.90
19437;DHT22;9854;50.968;4.168;2022-07-09T09:46:41;23.50;99.90
19437;DHT22;9854;50.968;4.168;2022-07-09T09:49:08;23.50;99.90
19437;DHT22;9854;50.968;4.168;2022-07-09T09:51:44;23.10;99.90
19437;DHT22;9854;50.968;4.168;2022-07-09T09:54:11;22.80;99.90
19437;DHT22;9854;50.968;4.168;2022-07-09T09:56:39;22.90;99.90
19437;DHT22;9854;50.968;4.168;2022-07-09T09:59:05;23.30;99.90
19437;DHT22;9854;50.968;4.168;2022-07-09T10:01:31;23.70;99.90
19437;DHT22;9854;50.968;4.168;2022-07-09T10:03:57;23.60;99.90
19437;DHT22;9854;50.968;4.168;2022-07-09T10:06:24;23.70;99.90
19437;DHT22;9854;50.968;4.168;2022-07-09T10:08:51;23.80;99.90
19437;DHT22;9854;50.968;4.168;2022-07-09T10:11:16;23.80;99.90
19437;DHT22;9854;50.968;4.168;2022-07-09T10:13:55;24.20;99.90
19437;DHT22;9854;50.968;4.168;2022-07-09T10:16:38;24.80;99.90
19437;DHT22;9854;50.968;4.168;2022-07-09T10:19:05;24.20;99.90
19437;DHT22;9854;50.968;4.168;2022-07-09T10:21:37;24.30;99.90
19437;DHT22;9854;50.968;4.168;2022-07-09T10:24:05;24.40;99.90
19437;DHT22;9854;50.968;4.168;2022-07-09T10:26:38;24.60;99.90
19437;DHT22;9854;50.968;4.168;2022-07-09T10:31:46;24.60;99.90
19437;DHT22;9854;50.968;4.168;2022-07-09T10:37:06;24.30;99.90
19437;DHT22;9854;50.968;4.168;2022-07-09T10:39:32;24.80;99.90
19437;DHT22;9854;50.968;4.168;2022-07-09T10:42:03;25.40;99.90
19437;DHT22;9854;50.968;4.168;2022-07-09T10:44:37;25.50;99.90
19437;DHT22;9854;50.968;4.168;2022-07-09T10:47:06;25.70;99.90
19437;DHT22;9854;50.968;4.168;2022-07-09T10:49:35;26.00;99.90
19437;DHT22;9854;50.968;4.168;2022-07-09T10:52:03;26.10;99.90
19437;DHT22;9854;50.968;4.168;2022-07-09T10:54:29;25.60;99.90
19437;DHT22;9854;50.968;4.168;2022-07-09T10:56:56;24.70;99.90
19437;DHT22;9854;50.968;4.168;2022-07-09T10:59:23;24.70;99.90
19437;DHT22;9854;50.968;4.168;2022-07-09T11:01:49;24.90;99.90
19437;DHT22;9854;50.968;4.168;2022-07-09T11:04:28;24.80;99.90
19437;DHT22;9854;50.968;4.168;2022-07-09T11:06:55;25.30;99.90
19437;DHT22;9854;50.968;4.168;2022-07-09T11:09:21;25.50;99.90
19437;DHT22;9854;50.968;4.168;2022-07-09T11:11:47;25.60;99.90
19437;DHT22;9854;50.968;4.168;2022-07-09T11:14:13;24.40;99.90
19437;DHT22;9854;50.968;4.168;2022-07-09T11:16:39;24.60;99.90
19437;DHT22;9854;50.968;4.168;2022-07-09T11:19:18;25.00;99.90
19437;DHT22;9854;50.968;4.168;2022-07-09T11:21:44;25.60;99.90
19437;DHT22;9854;50.968;4.168;2022-07-09T11:26:39;26.00;99.90
19437;DHT22;9854;50.968;4.168;2022-07-09T11:29:09;26.20;99.90
19437;DHT22;9854;50.968;4.168;2022-07-09T11:31:36;26.40;99.90
19437;DHT22;9854;50.968;4.168;2022-07-09T11:34:03;26.10;99.90
19437;DHT22;9854;50.968;4.168;2022-07-09T11:36:45;25.30;99.90
19437;DHT22;9854;50.968;4.168;2022-07-09T11:41:50;24.40;99.90
19437;DHT22;9854;50.968;4.168;2022-07-09T11:44:23;24.10;99.90
19437;DHT22;9854;50.968;4.168;2022-07-09T11:47:05;23.70;99.90
19437;DHT22;9854;50.968;4.168;2022-07-09T11:49:39;24.20;99.90
19437;DHT22;9854;50.968;4.168;2022-07-09T11:52:24;24.90;99.90
19437;DHT22;9854;50.968;4.168;2022-07-09T11:54:57;25.20;99.90
19437;DHT22;9854;50.968;4.168;2022-07-09T11:57:24;25.10;99.90
19437;DHT22;9854;50.968;4.168;2022-07-09T11:59:50;25.00;99.90
19437;DHT22;9854;50.968;4.168;2022-07-09T12:02:36;25.30;99.90
19437;DHT22;9854;50.968;4.168;2022-07-09T12:05:07;25.00;99.90
19437;DHT22;9854;50.968;4.168;2022-07-09T12:07:33;25.30;99.90
19437;DHT22;9854;50.968;4.168;2022-07-09T12:10:07;25.90;99.90
19437;DHT22;9854;50.968;4.168;2022-07-09T12:12:34;26.10;99.90
19437;DHT22;9854;50.968;4.168;2022-07-09T12:15:02;26.20;99.90
19437;DHT22;9854;50.968;4.168;2022-07-09T12:17:29;25.90;99.90
19437;DHT22;9854;50.968;4.168;2022-07-09T12:19:58;24.70;99.90
19437;DHT22;9854;50.968;4.168;2022-07-09T12:22:24;24.70;99.90
19437;DHT22;9854;50.968;4.168;2022-07-09T12:24:54;24.60;99.90
19437;DHT22;9854;50.968;4.168;2022-07-09T12:27:20;24.30;99.90
19437;DHT22;9854;50.968;4.168;2022-07-09T12:29:46;24.20;99.90
19437;DHT22;9854;50.968;4.168;2022-07-09T12:32:12;23.60;99.90
19437;DHT22;9854;50.968;4.168;2022-07-09T12:34:38;23.50;99.90
19437;DHT22;9854;50.968;4.168;2022-07-09T12:37:04;23.90;99.90
19437;DHT22;9854;50.968;4.168;2022-07-09T12:39:29;24.30;99.90
19437;DHT22;9854;50.968;4.168;2022-07-09T12:41:56;24.70;99.90
19437;DHT22;9854;50.968;4.168;2022-07-09T12:44:22;24.20;99.90
19437;DHT22;9854;50.968;4.168;2022-07-09T12:46:47;23.60;99.90
19437;DHT22;9854;50.968;4.168;2022-07-09T12:49:13;23.70;99.90
19437;DHT22;9854;50.968;4.168;2022-07-09T12:51:39;23.50;99.90
19437;DHT22;9854;50.968;4.168;2022-07-09T12:54:04;23.80;99.90
19437;DHT22;9854;50.968;4.168;2022-07-09T12:56:30;24.20;99.90
19437;DHT22;9854;50.968;4.168;2022-07-09T12:58:56;23.90;99.90
19437;DHT22;9854;50.968;4.168;2022-07-09T13:01:21;24.00;99.90
19437;DHT22;9854;50.968;4.168;2022-07-09T13:03:47;24.50;99.90
19437;DHT22;9854;50.968;4.168;2022-07-09T13:06:13;24.00;99.90
19437;DHT22;9854;50.968;4.168;2022-07-09T13:09:01;24.20;99.90
19437;DHT22;9854;50.968;4.168;2022-07-09T13:11:28;24.20;99.90
19437;DHT22;9854;50.968;4.168;2022-07-09T13:13:53;24.30;99.90
19437;DHT22;9854;50.968;4.168;2022-07-09T13:16:19;24.60;99.90
19437;DHT22;9854;50.968;4.168;2022-07-09T13:18:45;24.80;99.90
19437;DHT22;9854;50.968;4.168;2022-07-09T13:21:11;25.20;99.90
19437;DHT22;9854;50.968;4.168;2022-07-09T13:23:37;25.20;99.90
19437;DHT22;9854;50.968;4.168;2022-07-09T13:26:03;24.90;99.90
19437;DHT22;9854;50.968;4.168;2022-07-09T13:28:28;24.80;99.90
19437;DHT22;9854;50.968;4.168;2022-07-09T13:30:54;25.00;99.90
19437;DHT22;9854;50.968;4.168;2022-07-09T13:33:20;24.80;99.90
19437;DHT22;9854;50.968;4.168;2022-07-09T13:35:46;24.70;99.90
19437;DHT22;9854;50.968;4.168;2022-07-09T13:38:11;24.80;99.90
19437;DHT22;9854;50.968;4.168;2022-07-09T13:40:38;24.70;99.90
19437;DHT22;9854;50.968;4.168;2022-07-09T13:43:04;24.60;99.90
19437;DHT22;9854;50.968;4.168;2022-07-09T13:45:29;23.80;99.90
19437;DHT22;9854;50.968;4.168;2022-07-09T13:47:55;23.80;99.90
19437;DHT22;9854;50.968;4.168;2022-07-09T13:50:22;23.80;99.90
19437;DHT22;9854;50.968;4.168;2022-07-09T13:52:48;24.10;99.90
19437;DHT22;9854;50.968;4.168;2022-07-09T13:55:14;23.90;99.90
19437;DHT22;9854;50.968;4.168;2022-07-09T13:57:40;23.80;99.90
19437;DHT22;9854;50.968;4.168;2022-07-09T14:00:09;24.30;99.90
19437;DHT22;9854;50.968;4.168;2022-07-09T14:02:35;24.20;99.90
19437;DHT22;9854;50.968;4.168;2022-07-09T14:05:03;24.20;99.90
19437;DHT22;9854;50.968;4.168;2022-07-09T14:07:30;24.40;99.90
19437;DHT22;9854;50.968;4.168;2022-07-09T14:09:56;24.50;99.90
19437;DHT22;9854;50.968;4.168;2022-07-09T14:12:22;24.40;99.90
19437;DHT22;9854;50.968;4.168;2022-07-09T14:14:52;24.20;99.90
19437;DHT22;9854;50.968;4.168;2022-07-09T14:17:18;24.00;99.90
19437;DHT22;9854;50.968;4.168;2022-07-09T14:19:44;23.90;99.90
19437;DHT22;9854;50.968;4.168;2022-07-09T14:22:10;23.70;99.90
19437;DHT22;9854;50.968;4.168;2022-07-09T14:24:36;24.00;99.90
19437;DHT22;9854;50.968;4.168;2022-07-09T14:27:02;24.20;99.90
19437;DHT22;9854;50.968;4.168;2022-07-09T14:29:28;24.60;99.90
19437;DHT22;9854;50.968;4.168;2022-07-09T14:31:54;24.60;99.90
19437;DHT22;9854;50.968;4.168;2022-07-09T14:34:20;25.00;99.90
19437;DHT22;9854;50.968;4.168;2022-07-09T14:36:49;25.40;99.90
19437;DHT22;9854;50.968;4.168;2022-07-09T14:39:14;25.60;99.90
19437;DHT22;9854;50.968;4.168;2022-07-09T14:41:40;25.70;99.90
19437;DHT22;9854;50.968;4.168;2022-07-09T14:44:06;26.50;99.90
19437;DHT22;9854;50.968;4.168;2022-07-09T14:46:31;27.60;99.90
19437;DHT22;9854;50.968;4.168;2022-07-09T14:48:57;27.90;99.90
19437;DHT22;9854;50.968;4.168;2022-07-09T14:51:23;28.60;99.90
19437;DHT22;9854;50.968;4.168;2022-07-09T14:53:49;28.90;99.90
19437;DHT22;9854;50.968;4.168;2022-07-09T14:56:14;28.70;99.90
19437;DHT22;9854;50.968;4.168;2022-07-09T14:58:40;29.00;99.90
19437;DHT22;9854;50.968;4.168;2022-07-09T15:01:06;28.80;99.90
19437;DHT22;9854;50.968;4.168;2022-07-09T15:03:32;28.60;99.90
19437;DHT22;9854;50.968;4.168;2022-07-09T15:05:57;28.60;99.90
19437;DHT22;9854;50.968;4.168;2022-07-09T15:08:24;29.30;99.90
19437;DHT22;9854;50.968;4.168;2022-07-09T15:10:53;30.20;99.90
19437;DHT22;9854;50.968;4.168;2022-07-09T15:13:18;30.60;99.90
19437;DHT22;9854;50.968;4.168;2022-07-09T15:15:44;29.90;99.90
19437;DHT22;9854;50.968;4.168;2022-07-09T15:18:09;29.80;99.90
19437;DHT22;9854;50.968;4.168;2022-07-09T15:20:35;29.70;99.90
19437;DHT22;9854;50.968;4.168;2022-07-09T15:23:01;29.90;99.90
19437;DHT22;9854;50.968;4.168;2022-07-09T15:25:27;29.70;99.90
19437;DHT22;9854;50.968;4.168;2022-07-09T15:27:56;28.40;99.90
19437;DHT22;9854;50.968;4.168;2022-07-09T15:30:22;28.50;99.90
19437;DHT22;9854;50.968;4.168;2022-07-09T15:32:48;29.00;99.90
19437;DHT22;9854;50.968;4.168;2022-07-09T15:35:14;29.60;99.90
19437;DHT22;9854;50.968;4.168;2022-07-09T15:37:41;30.40;99.90
19437;DHT22;9854;50.968;4.168;2022-07-09T15:40:07;30.60;99.90
19437;DHT22;9854;50.968;4.168;2022-07-09T15:42:33;29.30;99.90
19437;DHT22;9854;50.968;4.168;2022-07-09T15:44:59;28.10;99.90
19437;DHT22;9854;50.968;4.168;2022-07-09T15:47:25;28.70;99.90
19437;DHT22;9854;50.968;4.168;2022-07-09T15:49:50;28.70;99.90
19437;DHT22;9854;50.968;4.168;2022-07-09T15:52:17;28.20;99.90